createdAt,value
2019-01-13T00:01:10.680Z,91.92
2019-01-13T00:04:32.549Z,91.64
2019-01-13T00:12:01.385Z,90.87
2019-01-13T00:15:20.504Z,91.12
2019-01-13T00:18:28.998Z,90.60
2019-01-13T00:21:37.769Z,91.07
2019-01-13T00:24:46.337Z,91.34
2019-01-13T00:32:06.997Z,90.44
2019-01-13T00:35:27.996Z,90.82
2019-01-13T00:38:47.951Z,91.42
2019-01-13T00:42:11.865Z,91.84
2019-01-13T00:45:20.017Z,91.48
2019-01-13T00:48:28.461Z,90.97
2019-01-13T00:51:49.378Z,91.06
2019-01-13T00:55:35.975Z,91.76
2019-01-13T00:58:54.953Z,91.88
2019-01-13T01:02:17.602Z,91.45
2019-01-13T01:05:26.177Z,91.47
2019-01-13T01:12:59.355Z,91.52
2019-01-13T01:16:19.297Z,91.32
2019-01-13T01:23:36.942Z,90.67
2019-01-13T01:30:51.252Z,90.25
2019-01-13T01:33:59.729Z,90.46
2019-01-13T01:44:27.598Z,89.80
2019-01-13T01:47:36.204Z,89.24
2019-01-13T01:50:44.700Z,89.32
2019-01-13T01:53:53.305Z,89.82
2019-01-13T01:57:01.977Z,89.84
2019-01-13T02:00:32.403Z,89.10
2019-01-13T02:03:56.236Z,89.14
2019-01-13T02:07:16.098Z,89.49
2019-01-13T02:10:38.698Z,89.61
2019-01-13T02:14:11.065Z,90.15
2019-01-13T02:17:31.456Z,91.06
2019-01-13T02:20:39.958Z,91.75
2019-01-13T02:23:48.413Z,91.57
2019-01-13T02:27:08.288Z,91.53
2019-01-13T02:34:42.110Z,90.89
2019-01-13T02:41:43.032Z,90.39
2019-01-13T02:44:51.538Z,90.30
2019-01-13T02:48:00.005Z,90.08
2019-01-13T02:55:15.113Z,90.21
2019-01-13T02:58:45.462Z,90.00
2019-01-13T03:01:54.053Z,89.59
2019-01-13T03:05:02.717Z,89.11
2019-01-13T03:08:31.844Z,90.19
2019-01-13T03:11:40.333Z,91.17
2019-01-13T03:30:37.207Z,92.37
2019-01-13T03:34:08.489Z,93.06
2019-01-13T03:37:17.020Z,93.53
2019-01-13T03:40:44.581Z,93.33
2019-01-13T03:48:27.954Z,93.25
2019-01-13T03:59:36.265Z,92.46
2019-01-13T04:03:00.923Z,92.21
2019-01-13T04:10:02.216Z,92.63
2019-01-13T04:13:10.695Z,92.78
2019-01-13T04:16:19.298Z,93.15
2019-01-13T04:27:38.478Z,93.49
2019-01-13T04:31:05.125Z,93.06
2019-01-13T04:53:37.763Z,94.11
2019-01-13T04:56:57.759Z,93.61
2019-01-13T05:08:32.961Z,94.19
2019-01-13T05:12:02.160Z,94.39
2019-01-13T05:19:05.565Z,95.00
2019-01-13T05:22:32.959Z,95.07
2019-01-13T05:25:52.902Z,95.24
2019-01-13T05:37:22.881Z,95.46
2019-01-13T06:19:43.493Z,94.76
2019-01-13T06:23:39.824Z,94.42
2019-01-13T06:50:26.499Z,94.36
2019-01-13T07:02:25.198Z,94.56
2019-01-13T07:05:45.991Z,94.99
2019-01-13T07:09:14.074Z,95.38
2019-01-13T07:31:20.948Z,94.42
2019-01-13T07:34:29.541Z,94.71
2019-01-13T07:44:59.880Z,94.37
2019-01-13T07:52:29.990Z,94.61
2019-01-13T07:55:50.805Z,95.19
2019-01-13T07:59:27.864Z,94.90
2019-01-13T08:10:22.966Z,95.08
2019-01-13T08:13:43.206Z,95.67
2019-01-13T08:17:02.229Z,95.48
2019-01-13T08:20:19.485Z,95.25
2019-01-13T08:23:50.607Z,95.41
2019-01-13T08:27:14.374Z,95.43
2019-01-13T08:30:22.943Z,95.18
2019-01-13T08:33:31.382Z,95.77
2019-01-13T08:36:39.963Z,95.95
2019-01-13T08:39:58.752Z,95.99
2019-01-13T08:43:19.297Z,95.97
2019-01-13T08:46:38.304Z,95.30
2019-01-13T08:50:06.718Z,95.43
2019-01-13T09:27:09.948Z,96.17
2019-01-13T10:21:38.946Z,97.21
2019-01-13T10:32:55.115Z,96.42
2019-01-13T12:33:54.931Z,96.48
2019-01-13T13:09:27.487Z,95.48
2019-01-13T13:12:54.499Z,95.46
2019-01-13T13:16:41.597Z,95.52
2019-01-13T13:20:02.467Z,95.84
2019-01-13T13:23:24.856Z,95.52
2019-01-13T13:26:44.679Z,95.50
2019-01-13T13:30:16.581Z,94.86
2019-01-13T13:48:47.322Z,93.40
2019-01-13T14:14:41.869Z,91.73
2019-01-13T15:44:49.575Z,91.72
2019-01-13T16:24:48.053Z,88.07
2019-01-13T17:47:08.859Z,86.53
2019-01-13T17:50:28.922Z,85.45
2019-01-13T18:17:16.928Z,84.90
2019-01-13T19:02:16.704Z,84.19
2019-01-13T19:05:51.887Z,84.70
2019-01-13T19:09:16.075Z,84.49
2019-01-13T19:45:03.134Z,84.54
2019-01-13T19:56:39.203Z,83.21
2019-01-13T19:59:54.649Z,83.03
2019-01-13T20:03:03.531Z,83.12
2019-01-13T20:22:26.968Z,83.55
2019-01-13T20:25:38.224Z,81.72
2019-01-13T20:28:48.745Z,80.29
2019-01-13T20:32:16.113Z,80.18
2019-01-13T20:35:56.188Z,80.32
2019-01-13T20:39:30.774Z,81.64
2019-01-13T20:43:16.968Z,81.57
2019-01-13T20:46:36.692Z,81.55
2019-01-13T20:53:40.238Z,80.42
2019-01-13T21:01:10.974Z,80.51
2019-01-13T21:04:20.587Z,79.72
2019-01-13T21:07:29.275Z,79.31
2019-01-13T21:10:38.454Z,78.18
2019-01-13T21:13:47.320Z,78.04
2019-01-13T21:16:56.060Z,77.86
2019-01-13T21:20:05.816Z,76.21
2019-01-13T21:23:14.993Z,75.32
2019-01-13T21:26:23.532Z,74.95
2019-01-13T21:29:31.971Z,74.02
2019-01-13T21:32:50.843Z,72.93
2019-01-13T21:35:59.304Z,73.08
2019-01-13T21:39:10.014Z,72.23
2019-01-13T21:42:18.467Z,73.13
2019-01-13T21:45:26.917Z,72.70
2019-01-13T21:48:35.384Z,72.03
2019-01-13T21:51:54.332Z,71.29
2019-01-13T21:55:02.787Z,72.23
2019-01-13T21:58:11.261Z,72.68
2019-01-13T22:01:19.696Z,71.93
2019-01-13T22:04:54.252Z,71.01
2019-01-13T22:08:14.023Z,69.14
2019-01-13T22:11:34.043Z,68.40
2019-01-13T22:14:42.496Z,69.17
2019-01-13T22:18:01.302Z,68.93
2019-01-13T22:21:09.754Z,69.28
2019-01-13T22:24:18.241Z,68.51
2019-01-13T22:27:26.667Z,68.52
2019-01-13T22:30:57.637Z,69.36
2019-01-13T22:34:17.471Z,69.11
2019-01-13T22:37:36.274Z,68.42
2019-01-13T22:40:44.724Z,67.68
2019-01-13T22:43:53.199Z,66.92
2019-01-13T22:47:01.735Z,66.43
2019-01-13T23:09:13.960Z,65.35
2019-01-13T23:12:32.848Z,66.17
2019-01-13T23:16:18.907Z,65.79
2019-01-13T23:19:43.085Z,66.15
2019-01-13T23:23:14.951Z,66.82
2019-01-13T23:27:00.237Z,65.89
2019-01-13T23:49:14.254Z,65.88
